createdAt,value
2023-02-14T00:01:33.809Z,9.10
2023-02-14T00:04:02.090Z,9.90
2023-02-14T00:06:31.803Z,9.77
2023-02-14T00:08:59.947Z,8.87
2023-02-14T00:11:28.097Z,9.57
2023-02-14T00:14:23.794Z,9.03
2023-02-14T00:16:51.992Z,10.43
2023-02-14T00:19:21.088Z,9.57
2023-02-14T00:21:49.932Z,9.63
2023-02-14T00:24:18.937Z,7.37
2023-02-14T00:26:47.154Z,10.40
2023-02-14T00:29:18.037Z,9.10
2023-02-14T00:31:46.313Z,8.47
2023-02-14T00:34:16.032Z,9.43
2023-02-14T00:36:44.566Z,10.63
2023-02-14T00:39:13.594Z,9.57
2023-02-14T00:41:42.305Z,11.10
2023-02-14T00:44:11.025Z,9.77
2023-02-14T00:46:40.518Z,8.40
2023-02-14T00:49:08.716Z,9.50
2023-02-14T00:51:36.987Z,8.83
2023-02-14T00:54:05.249Z,10.10
2023-02-14T00:56:33.865Z,11.70
2023-02-14T00:59:02.061Z,10.63
2023-02-14T01:01:30.194Z,11.23
2023-02-14T01:03:59.909Z,12.80
2023-02-14T01:06:28.125Z,12.13
2023-02-14T01:08:56.398Z,13.47
2023-02-14T01:11:25.521Z,14.80
2023-02-14T01:13:53.998Z,12.97
2023-02-14T01:16:23.384Z,12.50
2023-02-14T01:18:51.771Z,13.10
2023-02-14T01:21:21.830Z,12.30
2023-02-14T01:23:51.432Z,14.67
2023-02-14T01:26:19.603Z,14.67
2023-02-14T01:28:47.981Z,15.97
2023-02-14T01:31:17.254Z,11.97
2023-02-14T01:33:46.128Z,12.67
2023-02-14T01:36:17.670Z,13.40
2023-02-14T01:38:47.277Z,13.03
2023-02-14T01:41:15.901Z,13.07
2023-02-14T01:43:54.371Z,16.57
2023-02-14T01:46:22.586Z,12.67
2023-02-14T01:48:50.876Z,12.43
2023-02-14T01:51:20.438Z,13.23
2023-02-14T01:53:51.338Z,13.80
2023-02-14T01:56:21.562Z,12.17
2023-02-14T01:58:50.189Z,15.80
2023-02-14T02:01:19.301Z,14.37
2023-02-14T02:03:49.561Z,12.43
2023-02-14T02:06:19.047Z,12.23
2023-02-14T02:08:51.784Z,9.43
2023-02-14T02:11:19.931Z,11.10
2023-02-14T02:13:48.073Z,10.70
2023-02-14T02:16:23.751Z,12.97
2023-02-14T02:18:58.650Z,12.43
2023-02-14T02:21:56.783Z,13.07
2023-02-14T02:24:37.951Z,11.67
2023-02-14T02:27:13.385Z,12.83
2023-02-14T02:29:59.327Z,12.23
2023-02-14T02:32:40.226Z,13.20
2023-02-14T02:35:19.594Z,10.63
2023-02-14T02:37:51.953Z,11.53
2023-02-14T02:40:26.540Z,16.50
2023-02-14T02:42:58.402Z,13.13
2023-02-14T02:45:29.309Z,13.77
2023-02-14T02:47:59.938Z,11.10
2023-02-14T02:50:48.896Z,12.37
2023-02-14T02:53:20.800Z,13.80
2023-02-14T02:56:09.591Z,11.43
2023-02-14T02:58:39.052Z,10.57
2023-02-14T03:01:10.472Z,10.83
2023-02-14T03:03:57.024Z,11.40
2023-02-14T03:06:26.528Z,12.00
2023-02-14T03:08:54.715Z,12.17
2023-02-14T03:11:25.510Z,10.27
2023-02-14T03:14:12.056Z,12.03
2023-02-14T03:16:43.386Z,9.47
2023-02-14T03:19:34.879Z,12.40
2023-02-14T03:22:06.997Z,8.53
2023-02-14T03:24:41.611Z,10.13
2023-02-14T03:27:14.356Z,8.60
2023-02-14T03:29:53.939Z,9.60
2023-02-14T03:32:28.220Z,7.60
2023-02-14T03:34:59.799Z,7.20
2023-02-14T03:37:32.485Z,6.93
2023-02-14T03:40:05.267Z,5.57
2023-02-14T03:42:34.782Z,7.00
2023-02-14T03:45:04.355Z,5.73
2023-02-14T03:47:34.328Z,7.90
2023-02-14T03:50:04.746Z,7.23
2023-02-14T03:52:35.588Z,6.67
2023-02-14T03:55:04.407Z,10.03
2023-02-14T03:57:34.355Z,5.13
2023-02-14T04:00:02.514Z,8.83
2023-02-14T04:02:33.277Z,9.47
2023-02-14T04:05:02.574Z,7.10
2023-02-14T04:07:30.721Z,7.20
2023-02-14T04:10:00.251Z,8.47
2023-02-14T04:12:37.493Z,7.63
2023-02-14T04:15:06.724Z,6.40
2023-02-14T04:17:52.344Z,6.30
2023-02-14T04:20:20.821Z,8.87
2023-02-14T04:22:49.029Z,7.17
2023-02-14T04:25:18.646Z,9.23
2023-02-14T04:27:46.819Z,5.20
2023-02-14T04:30:16.465Z,8.50
2023-02-14T04:32:44.662Z,6.03
2023-02-14T04:35:13.093Z,6.47
2023-02-14T04:37:41.280Z,5.93
2023-02-14T04:40:10.130Z,5.23
2023-02-14T04:42:39.626Z,6.40
2023-02-14T04:45:08.158Z,4.77
2023-02-14T04:47:36.312Z,6.33
2023-02-14T04:50:04.619Z,5.40
2023-02-14T04:52:32.793Z,6.63
2023-02-14T04:55:00.950Z,7.20
2023-02-14T04:57:29.090Z,7.40
2023-02-14T04:59:58.672Z,5.50
2023-02-14T05:02:26.970Z,5.37
2023-02-14T05:04:55.171Z,6.80
2023-02-14T05:07:23.345Z,7.23
2023-02-14T05:09:51.673Z,6.27
2023-02-14T05:12:19.833Z,8.07
2023-02-14T05:14:48.152Z,7.10
2023-02-14T05:17:17.652Z,7.23
2023-02-14T05:19:45.795Z,6.97
2023-02-14T05:22:13.978Z,6.93
2023-02-14T05:24:42.128Z,7.27
2023-02-14T05:27:11.921Z,7.37
2023-02-14T05:29:40.071Z,5.73
2023-02-14T05:32:08.478Z,7.23
2023-02-14T05:34:38.045Z,8.37
2023-02-14T05:37:06.197Z,6.07
2023-02-14T05:39:34.360Z,8.20
2023-02-14T05:42:03.155Z,9.23
2023-02-14T05:44:31.316Z,8.23
2023-02-14T05:46:59.483Z,12.27
2023-02-14T05:49:27.680Z,9.13
2023-02-14T05:51:57.180Z,9.07
2023-02-14T05:54:25.326Z,7.37
2023-02-14T05:56:53.471Z,7.70
2023-02-14T05:59:21.732Z,8.53
2023-02-14T06:01:50.173Z,7.70
2023-02-14T06:04:18.363Z,10.37
2023-02-14T06:06:53.031Z,7.83
2023-02-14T06:09:23.186Z,7.57
2023-02-14T06:11:51.865Z,8.67
2023-02-14T06:14:22.686Z,10.30
2023-02-14T06:16:56.602Z,8.60
2023-02-14T06:19:26.316Z,7.77
2023-02-14T06:21:56.541Z,9.00
2023-02-14T06:24:26.132Z,6.90
2023-02-14T06:26:54.294Z,6.73
2023-02-14T06:29:22.815Z,9.77
2023-02-14T06:31:51.058Z,8.13
2023-02-14T06:34:19.322Z,7.83
2023-02-14T06:36:47.466Z,7.90
2023-02-14T06:39:15.825Z,9.93
2023-02-14T06:41:45.313Z,6.67
2023-02-14T06:44:13.482Z,8.40
2023-02-14T06:46:41.645Z,7.30
2023-02-14T06:49:11.022Z,7.17
2023-02-14T06:51:39.160Z,11.37
2023-02-14T06:54:07.372Z,6.63
2023-02-14T06:56:35.692Z,7.70
2023-02-14T06:59:05.711Z,8.70
2023-02-14T07:01:33.876Z,10.40
2023-02-14T07:04:02.140Z,5.97
2023-02-14T07:06:30.307Z,6.63
2023-02-14T07:08:58.441Z,10.07
2023-02-14T07:11:28.530Z,8.53
2023-02-14T07:13:56.724Z,7.30
2023-02-14T07:16:26.363Z,9.57
2023-02-14T07:18:54.525Z,6.83
2023-02-14T07:21:22.668Z,9.07
2023-02-14T07:23:50.805Z,6.37
2023-02-14T07:26:19.005Z,8.13
2023-02-14T07:28:49.014Z,8.20
2023-02-14T07:31:17.281Z,6.90
2023-02-14T07:33:46.880Z,8.13
2023-02-14T07:36:15.083Z,7.20
2023-02-14T07:38:43.265Z,10.00
2023-02-14T07:41:11.437Z,8.67
2023-02-14T07:43:39.912Z,10.67
2023-02-14T07:46:08.483Z,7.77
2023-02-14T07:48:36.664Z,7.27
2023-02-14T07:51:06.320Z,6.93
2023-02-14T07:53:34.532Z,7.60
2023-02-14T07:56:02.747Z,8.13
2023-02-14T07:58:30.988Z,7.63
2023-02-14T08:00:59.585Z,7.40
2023-02-14T08:03:27.969Z,5.77
2023-02-14T08:05:57.966Z,7.90
2023-02-14T08:08:28.883Z,9.20
2023-02-14T08:10:57.147Z,7.43
2023-02-14T08:13:25.464Z,6.97
2023-02-14T08:16:05.878Z,5.50
2023-02-14T08:18:36.749Z,7.23
2023-02-14T08:21:05.294Z,6.77
2023-02-14T08:23:34.840Z,7.13
2023-02-14T08:26:03.030Z,10.50
2023-02-14T08:28:32.899Z,6.47
2023-02-14T08:31:01.440Z,5.07
2023-02-14T08:33:29.915Z,5.60
2023-02-14T08:35:58.068Z,5.90
2023-02-14T08:38:26.246Z,6.57
2023-02-14T08:40:55.785Z,6.53
2023-02-14T08:43:23.941Z,8.60
2023-02-14T08:45:54.611Z,7.47
2023-02-14T08:48:23.469Z,5.80
2023-02-14T08:50:51.602Z,6.80
2023-02-14T08:53:19.756Z,6.17
2023-02-14T08:55:47.919Z,6.90
2023-02-14T08:58:17.425Z,7.67
2023-02-14T09:00:45.640Z,10.07
2023-02-14T09:03:13.815Z,8.27
2023-02-14T09:05:42.006Z,9.33
2023-02-14T09:08:10.230Z,8.77
2023-02-14T09:10:38.446Z,7.37
2023-02-14T09:13:07.269Z,7.97
2023-02-14T09:15:36.828Z,9.33
2023-02-14T09:18:05.014Z,8.00
2023-02-14T09:20:33.268Z,10.33
2023-02-14T09:23:01.577Z,9.87
2023-02-14T09:25:29.713Z,7.90
2023-02-14T09:27:57.987Z,8.43
2023-02-14T09:30:26.212Z,15.03
2023-02-14T09:32:56.136Z,9.67
2023-02-14T09:35:41.914Z,10.57
2023-02-14T09:38:11.671Z,8.77
2023-02-14T09:40:39.830Z,19.67
2023-02-14T09:43:11.542Z,15.13
2023-02-14T09:45:40.176Z,10.50
2023-02-14T09:48:12.554Z,18.07
2023-02-14T09:50:44.304Z,12.77
2023-02-14T09:53:18.061Z,15.57
2023-02-14T09:55:49.481Z,14.30
2023-02-14T09:58:20.131Z,14.90
2023-02-14T10:00:50.242Z,15.10
2023-02-14T10:03:33.392Z,17.43
2023-02-14T10:06:06.903Z,15.07
2023-02-14T10:08:40.897Z,16.13
2023-02-14T10:11:11.706Z,15.63
2023-02-14T10:13:42.749Z,13.10
2023-02-14T10:16:13.233Z,14.17
2023-02-14T10:18:44.293Z,16.03
2023-02-14T10:21:18.599Z,13.17
2023-02-14T10:23:51.088Z,12.40
2023-02-14T10:26:22.439Z,12.63
2023-02-14T10:28:51.280Z,13.87
2023-02-14T10:31:21.826Z,9.63
2023-02-14T10:33:57.491Z,10.00
2023-02-14T10:36:40.786Z,11.93
2023-02-14T10:39:13.594Z,16.13
2023-02-14T10:41:49.013Z,14.13
2023-02-14T10:44:22.697Z,13.60
2023-02-14T10:46:53.655Z,11.20
2023-02-14T10:49:28.716Z,12.20
2023-02-14T10:52:03.083Z,15.77
2023-02-14T10:54:35.519Z,16.20
2023-02-14T10:57:04.737Z,11.67
2023-02-14T10:59:35.788Z,13.23
2023-02-14T11:02:04.046Z,15.57
2023-02-14T11:04:33.268Z,15.33
2023-02-14T11:07:02.786Z,16.97
2023-02-14T11:09:30.960Z,12.63
2023-02-14T11:12:00.696Z,15.03
2023-02-14T11:14:30.034Z,15.77
2023-02-14T11:16:59.112Z,14.83
2023-02-14T11:19:28.327Z,15.43
2023-02-14T11:21:57.495Z,13.63
2023-02-14T11:24:29.759Z,17.43
2023-02-14T11:27:00.640Z,16.50
2023-02-14T11:29:30.715Z,18.53
2023-02-14T11:32:07.997Z,15.87
2023-02-14T11:34:37.172Z,13.37
2023-02-14T11:37:05.313Z,18.20
2023-02-14T11:39:36.178Z,13.27
2023-02-14T11:42:05.770Z,17.50
2023-02-14T11:44:37.213Z,16.00
2023-02-14T11:47:19.302Z,16.67
2023-02-14T11:49:57.368Z,17.37
2023-02-14T11:52:26.752Z,17.53
2023-02-14T11:54:56.970Z,16.47
2023-02-14T11:57:28.614Z,20.17
2023-02-14T11:59:57.889Z,16.53
2023-02-14T12:02:29.938Z,13.53
2023-02-14T12:05:00.785Z,17.60
2023-02-14T12:07:31.992Z,19.03
2023-02-14T12:10:29.435Z,14.27
2023-02-14T12:12:59.735Z,15.37
2023-02-14T12:15:34.244Z,16.13
2023-02-14T12:18:21.822Z,17.87
2023-02-14T12:20:57.590Z,17.60
2023-02-14T12:23:31.695Z,16.50
2023-02-14T12:26:05.540Z,17.87
2023-02-14T12:28:38.508Z,18.17
2023-02-14T12:31:11.956Z,21.73
2023-02-14T12:33:40.490Z,18.70
2023-02-14T12:36:15.393Z,18.33
2023-02-14T12:38:53.452Z,18.37
2023-02-14T12:41:29.403Z,25.23
2023-02-14T12:43:58.328Z,19.90
2023-02-14T12:46:44.410Z,18.33
2023-02-14T12:49:23.942Z,19.80
2023-02-14T12:51:56.286Z,19.50
2023-02-14T12:54:32.419Z,19.80
2023-02-14T12:57:06.491Z,19.93
2023-02-14T12:59:40.550Z,19.33
2023-02-14T13:02:26.804Z,17.10
2023-02-14T13:05:01.451Z,17.83
2023-02-14T13:07:40.268Z,22.10
2023-02-14T13:10:15.350Z,19.60
2023-02-14T13:12:47.478Z,19.77
2023-02-14T13:15:20.445Z,16.43
2023-02-14T13:17:52.067Z,19.20
2023-02-14T13:20:38.100Z,18.40
2023-02-14T13:23:07.598Z,19.87
2023-02-14T13:25:39.114Z,21.30
2023-02-14T13:28:09.280Z,19.83
2023-02-14T13:30:38.797Z,20.33
2023-02-14T13:33:09.369Z,22.50
2023-02-14T13:35:37.643Z,21.43
2023-02-14T13:38:08.361Z,18.83
2023-02-14T13:40:37.716Z,17.10
2023-02-14T13:43:06.026Z,18.27
2023-02-14T13:45:57.987Z,22.10
2023-02-14T13:48:28.901Z,31.13
2023-02-14T13:50:58.285Z,18.83
2023-02-14T13:53:31.737Z,20.90
2023-02-14T13:56:00.392Z,20.47
2023-02-14T13:58:29.461Z,19.93
2023-02-14T14:00:57.910Z,18.97
2023-02-14T14:03:46.632Z,18.17
2023-02-14T14:06:16.157Z,21.87
2023-02-14T14:08:48.385Z,18.27
2023-02-14T14:12:01.749Z,20.60
2023-02-14T14:14:39.819Z,19.10
2023-02-14T14:17:23.093Z,22.17
2023-02-14T14:19:51.516Z,22.00
2023-02-14T14:22:22.325Z,14.60
2023-02-14T14:24:59.274Z,17.00
2023-02-14T14:27:31.224Z,14.30
2023-02-14T14:30:00.535Z,12.53
2023-02-14T14:32:30.626Z,17.23
2023-02-14T14:34:59.838Z,17.43
2023-02-14T14:37:30.296Z,17.03
2023-02-14T14:39:59.467Z,15.23
2023-02-14T14:42:28.975Z,13.83
2023-02-14T14:44:59.132Z,16.87
2023-02-14T14:47:28.409Z,17.23
2023-02-14T14:50:00.675Z,16.87
2023-02-14T14:52:35.053Z,15.33
2023-02-14T14:55:04.206Z,17.97
2023-02-14T14:57:32.445Z,17.27
2023-02-14T15:00:09.498Z,16.50
2023-02-14T15:02:37.725Z,18.50
2023-02-14T15:05:15.078Z,15.77
2023-02-14T15:07:44.624Z,15.93
2023-02-14T15:10:22.739Z,17.60
2023-02-14T15:13:09.263Z,22.63
2023-02-14T15:15:37.962Z,18.83
2023-02-14T15:18:07.060Z,19.27
2023-02-14T15:20:36.853Z,19.33
2023-02-14T15:23:06.444Z,17.53
2023-02-14T15:25:37.126Z,19.63
2023-02-14T15:28:05.364Z,18.27
2023-02-14T15:30:37.716Z,16.47
2023-02-14T15:33:06.747Z,20.93
2023-02-14T15:35:35.710Z,17.80
2023-02-14T15:38:05.992Z,20.80
2023-02-14T15:40:38.679Z,22.67
2023-02-14T15:43:15.428Z,20.83
2023-02-14T15:45:44.874Z,19.13
2023-02-14T15:48:16.150Z,16.20
2023-02-14T15:50:46.484Z,22.27
2023-02-14T15:53:29.206Z,18.57
2023-02-14T15:56:04.675Z,20.13
2023-02-14T15:58:35.371Z,23.43
2023-02-14T16:01:04.701Z,17.53
2023-02-14T16:03:35.848Z,17.70
2023-02-14T16:06:04.639Z,19.70
2023-02-14T16:08:33.728Z,26.70
2023-02-14T16:11:05.836Z,22.73
2023-02-14T16:13:35.060Z,19.00
2023-02-14T16:16:04.351Z,18.93
2023-02-14T16:18:36.754Z,21.90
2023-02-14T16:21:11.921Z,19.50
2023-02-14T16:23:40.249Z,19.13
2023-02-14T16:26:10.151Z,18.17
2023-02-14T16:28:38.574Z,20.23
2023-02-14T16:31:10.225Z,22.27
2023-02-14T16:33:39.292Z,20.30
2023-02-14T16:36:14.031Z,18.83
2023-02-14T16:38:43.663Z,22.73
2023-02-14T16:41:17.909Z,23.23
2023-02-14T16:43:46.271Z,24.03
2023-02-14T16:46:15.248Z,22.23
2023-02-14T16:48:43.686Z,23.83
2023-02-14T16:51:12.430Z,20.07
2023-02-14T16:53:42.176Z,23.03
2023-02-14T16:56:12.249Z,25.70
2023-02-14T16:58:41.841Z,23.50
2023-02-14T17:01:10.068Z,22.23
2023-02-14T17:03:39.897Z,22.90
2023-02-14T17:06:08.762Z,24.57
2023-02-14T17:08:37.144Z,22.43
2023-02-14T17:11:06.785Z,25.27
2023-02-14T17:13:36.389Z,24.23
2023-02-14T17:16:07.356Z,19.80
2023-02-14T17:18:36.981Z,21.47
2023-02-14T17:21:06.293Z,21.70
2023-02-14T17:23:34.436Z,19.17
2023-02-14T17:26:02.594Z,23.10
2023-02-14T17:28:30.749Z,20.27
2023-02-14T17:31:00.824Z,22.90
2023-02-14T17:33:31.344Z,21.10
2023-02-14T17:36:05.143Z,20.77
2023-02-14T17:38:33.290Z,19.60
2023-02-14T17:41:01.760Z,23.73
2023-02-14T17:43:30.067Z,22.67
2023-02-14T17:45:58.244Z,23.03
2023-02-14T17:48:26.415Z,21.80
2023-02-14T17:50:55.897Z,22.70
2023-02-14T17:53:24.072Z,22.60
2023-02-14T17:55:52.229Z,24.93
2023-02-14T17:58:20.372Z,25.27
2023-02-14T18:00:48.506Z,22.80
2023-02-14T18:03:16.665Z,21.27
2023-02-14T18:05:44.789Z,21.00
2023-02-14T18:08:14.274Z,26.83
2023-02-14T18:10:42.405Z,22.57
2023-02-14T18:13:10.543Z,24.07
2023-02-14T18:15:38.680Z,22.80
2023-02-14T18:18:06.894Z,23.03
2023-02-14T18:20:35.032Z,24.33
2023-02-14T18:23:07.028Z,24.27
2023-02-14T18:25:36.769Z,29.20
2023-02-14T18:28:05.108Z,26.97
2023-02-14T18:30:33.272Z,26.93
2023-02-14T18:33:01.446Z,26.10
2023-02-14T18:35:29.589Z,26.33
2023-02-14T18:37:57.849Z,28.73
2023-02-14T18:40:26.746Z,27.37
2023-02-14T18:42:56.241Z,27.00
2023-02-14T18:45:25.110Z,25.23
2023-02-14T18:47:53.400Z,22.33
2023-02-14T18:50:21.729Z,26.87
2023-02-14T18:52:49.935Z,24.37
2023-02-14T18:55:18.159Z,23.93
2023-02-14T18:57:46.343Z,28.47
2023-02-14T19:00:16.600Z,25.17
2023-02-14T19:02:44.737Z,23.43
2023-02-14T19:05:13.821Z,26.57
2023-02-14T19:07:41.970Z,25.67
2023-02-14T19:10:11.065Z,27.13
2023-02-14T19:12:39.236Z,26.90
2023-02-14T19:15:07.781Z,24.23
2023-02-14T19:17:38.917Z,28.57
2023-02-14T19:20:08.573Z,28.50
2023-02-14T19:22:39.266Z,30.60
2023-02-14T19:25:07.803Z,29.43
2023-02-14T19:27:36.945Z,29.07
2023-02-14T19:30:06.090Z,27.03
2023-02-14T19:32:34.301Z,25.70
2023-02-14T19:35:03.803Z,25.70
2023-02-14T19:37:31.947Z,28.93
2023-02-14T19:40:00.152Z,28.13
2023-02-14T19:42:28.336Z,28.70
2023-02-14T19:44:56.484Z,29.07
2023-02-14T19:47:36.518Z,24.60
2023-02-14T19:50:14.565Z,23.33
2023-02-14T19:52:43.804Z,27.67
2023-02-14T19:55:18.470Z,32.23
2023-02-14T19:57:47.807Z,27.13
2023-02-14T20:00:17.064Z,29.47
2023-02-14T20:02:48.051Z,28.27
2023-02-14T20:05:18.057Z,31.77
2023-02-14T20:07:49.090Z,27.03
2023-02-14T20:10:17.262Z,29.73
2023-02-14T20:12:45.551Z,31.63
2023-02-14T20:15:13.839Z,33.60
2023-02-14T20:17:42.096Z,28.57
2023-02-14T20:20:13.577Z,27.57
2023-02-14T20:22:43.171Z,27.83
2023-02-14T20:25:11.343Z,28.93
2023-02-14T20:27:39.667Z,24.83
2023-02-14T20:30:08.965Z,26.77
2023-02-14T20:32:37.221Z,27.60
2023-02-14T20:35:05.504Z,25.67
2023-02-14T20:37:33.641Z,25.40
2023-02-14T20:40:03.346Z,27.13
2023-02-14T20:42:31.709Z,25.77
2023-02-14T20:44:59.861Z,23.60
2023-02-14T20:47:28.644Z,26.60
2023-02-14T20:49:56.786Z,24.87
2023-02-14T20:52:26.893Z,21.97
2023-02-14T20:54:55.043Z,26.70
2023-02-14T20:57:24.550Z,23.30
2023-02-14T20:59:52.704Z,29.23
2023-02-14T21:02:20.878Z,21.97
2023-02-14T21:04:49.081Z,25.23
2023-02-14T21:07:17.589Z,25.87
2023-02-14T21:09:45.793Z,23.70
2023-02-14T21:12:13.950Z,26.57
2023-02-14T21:14:43.420Z,23.63
2023-02-14T21:17:11.597Z,22.30
2023-02-14T21:19:39.774Z,25.93
2023-02-14T21:22:07.908Z,28.47
2023-02-14T21:24:36.335Z,22.97
2023-02-14T21:27:04.489Z,19.77
2023-02-14T21:29:32.650Z,24.63
2023-02-14T21:32:03.697Z,22.10
2023-02-14T21:34:32.076Z,20.13
2023-02-14T21:37:00.239Z,21.70
2023-02-14T21:39:30.846Z,20.73
2023-02-14T21:41:59.656Z,22.40
2023-02-14T21:44:45.416Z,23.27
2023-02-14T21:47:14.925Z,23.67
2023-02-14T21:50:00.631Z,22.00
2023-02-14T21:52:30.135Z,23.57
2023-02-14T21:54:58.426Z,20.03
2023-02-14T21:57:26.958Z,22.40
2023-02-14T21:59:55.095Z,23.43
2023-02-14T22:02:24.586Z,22.83
2023-02-14T22:04:52.794Z,25.17
2023-02-14T22:07:20.959Z,23.50
2023-02-14T22:09:49.155Z,25.60
2023-02-14T22:12:17.321Z,25.53
2023-02-14T22:14:45.480Z,25.57
2023-02-14T22:17:13.653Z,25.50
2023-02-14T22:19:43.150Z,30.13
2023-02-14T22:22:11.284Z,27.53
2023-02-14T22:24:39.436Z,29.23
2023-02-14T22:27:07.592Z,30.50
2023-02-14T22:29:36.153Z,25.70
2023-02-14T22:32:04.745Z,28.67
2023-02-14T22:34:33.044Z,24.73
2023-02-14T22:37:02.598Z,32.33
2023-02-14T22:39:30.747Z,27.07
2023-02-14T22:41:58.940Z,29.83
2023-02-14T22:44:27.195Z,29.77
2023-02-14T22:46:55.432Z,31.50
2023-02-14T22:49:23.592Z,29.07
2023-02-14T22:51:51.843Z,30.73
2023-02-14T22:54:21.385Z,32.03
2023-02-14T22:56:50.909Z,30.23
2023-02-14T22:59:20.151Z,27.53
2023-02-14T23:01:48.477Z,32.17
2023-02-14T23:04:17.245Z,30.60
2023-02-14T23:06:45.505Z,28.20
2023-02-14T23:09:14.148Z,32.40
2023-02-14T23:11:44.975Z,29.70
2023-02-14T23:14:31.413Z,29.47
2023-02-14T23:17:17.494Z,33.93
2023-02-14T23:20:04.301Z,31.13
2023-02-14T23:22:33.325Z,34.30
2023-02-14T23:25:03.437Z,26.27
2023-02-14T23:27:34.032Z,31.37
2023-02-14T23:30:02.874Z,29.60
2023-02-14T23:32:31.076Z,33.60
2023-02-14T23:34:59.869Z,34.57
2023-02-14T23:37:28.044Z,35.57
2023-02-14T23:39:56.192Z,35.23
2023-02-14T23:42:24.358Z,35.73
2023-02-14T23:44:53.831Z,35.40
2023-02-14T23:47:22.004Z,32.93
2023-02-14T23:49:50.157Z,32.23
2023-02-14T23:52:18.314Z,36.47
2023-02-14T23:54:46.450Z,35.90
2023-02-14T23:57:14.593Z,36.10
2023-02-14T23:59:42.749Z,33.87
